sensor_id;sensor_type;location;lat;lon;timestamp;pressure;altitude;pressure_sealevel;temperature;humidity
63281;BME280;49406;51.044;3.766;2023-03-20T00:01:33;102105.09;;;3.97;100.00
63281;BME280;49406;51.044;3.766;2023-03-20T00:04:10;102107.78;;;3.92;100.00
63281;BME280;49406;51.044;3.766;2023-03-20T00:06:45;102114.43;;;3.87;100.00
63281;BME280;49406;51.044;3.766;2023-03-20T00:09:20;102111.97;;;3.83;100.00
63281;BME280;49406;51.044;3.766;2023-03-20T00:11:55;102123.28;;;3.82;100.00
63281;BME280;49406;51.044;3.766;2023-03-20T00:14:30;102136.40;;;3.81;100.00
63281;BME280;49406;51.044;3.766;2023-03-20T00:17:10;102153.81;;;3.83;100.00
63281;BME280;49406;51.044;3.766;2023-03-20T00:19:50;102163.45;;;3.88;100.00
63281;BME280;49406;51.044;3.766;2023-03-20T00:22:25;102154.20;;;3.89;100.00
63281;BME280;49406;51.044;3.766;2023-03-20T00:25:01;102128.84;;;3.85;100.00
63281;BME280;49406;51.044;3.766;2023-03-20T00:27:36;102105.91;;;3.83;100.00
63281;BME280;49406;51.044;3.766;2023-03-20T00:30:28;102098.11;;;3.83;100.00
63281;BME280;49406;51.044;3.766;2023-03-20T00:33:04;102100.27;;;3.87;100.00
63281;BME280;49406;51.044;3.766;2023-03-20T00:35:39;102098.52;;;3.93;100.00
63281;BME280;49406;51.044;3.766;2023-03-20T00:38:14;102098.17;;;3.90;100.00
63281;BME280;49406;51.044;3.766;2023-03-20T00:40:49;102079.80;;;3.86;100.00
63281;BME280;49406;51.044;3.766;2023-03-20T00:43:24;102081.23;;;3.90;100.00
63281;BME280;49406;51.044;3.766;2023-03-20T00:45:59;102090.85;;;3.96;100.00
63281;BME280;49406;51.044;3.766;2023-03-20T00:48:34;102097.02;;;3.98;100.00
63281;BME280;49406;51.044;3.766;2023-03-20T00:51:09;102106.63;;;3.96;100.00
63281;BME280;49406;51.044;3.766;2023-03-20T00:53:44;102114.45;;;3.97;100.00
63281;BME280;49406;51.044;3.766;2023-03-20T00:56:31;102118.38;;;3.99;100.00
63281;BME280;49406;51.044;3.766;2023-03-20T00:59:08;102125.00;;;4.06;100.00
63281;BME280;49406;51.044;3.766;2023-03-20T01:01:48;102127.21;;;4.21;100.00
63281;BME280;49406;51.044;3.766;2023-03-20T01:04:23;102124.80;;;4.31;100.00
63281;BME280;49406;51.044;3.766;2023-03-20T01:06:58;102128.95;;;4.40;100.00
63281;BME280;49406;51.044;3.766;2023-03-20T01:09:33;102119.68;;;4.45;100.00
63281;BME280;49406;51.044;3.766;2023-03-20T01:12:08;102126.39;;;4.54;100.00
63281;BME280;49406;51.044;3.766;2023-03-20T01:14:44;102121.64;;;4.63;100.00
63281;BME280;49406;51.044;3.766;2023-03-20T01:17:22;102115.71;;;4.68;100.00
63281;BME280;49406;51.044;3.766;2023-03-20T01:19:57;102110.02;;;4.72;100.00
63281;BME280;49406;51.044;3.766;2023-03-20T01:22:31;102107.09;;;4.76;100.00
63281;BME280;49406;51.044;3.766;2023-03-20T01:25:08;102106.20;;;4.79;100.00
63281;BME280;49406;51.044;3.766;2023-03-20T01:27:45;102119.05;;;4.89;100.00
63281;BME280;49406;51.044;3.766;2023-03-20T01:30:23;102118.05;;;4.93;100.00
63281;BME280;49406;51.044;3.766;2023-03-20T01:32:59;102115.10;;;4.93;100.00
63281;BME280;49406;51.044;3.766;2023-03-20T01:35:34;102104.81;;;4.92;100.00
63281;BME280;49406;51.044;3.766;2023-03-20T01:38:14;102099.80;;;4.92;100.00
63281;BME280;49406;51.044;3.766;2023-03-20T01:40:55;102093.23;;;4.93;100.00
63281;BME280;49406;51.044;3.766;2023-03-20T01:43:32;102098.60;;;4.89;100.00
63281;BME280;49406;51.044;3.766;2023-03-20T01:46:16;102100.31;;;4.86;100.00
63281;BME280;49406;51.044;3.766;2023-03-20T01:50:00;102106.63;;;4.84;100.00
63281;BME280;49406;51.044;3.766;2023-03-20T01:52:03;102112.44;;;4.85;100.00
63281;BME280;49406;51.044;3.766;2023-03-20T01:54:39;102103.02;;;4.94;100.00
63281;BME280;49406;51.044;3.766;2023-03-20T01:57:15;102100.07;;;4.94;100.00
63281;BME280;49406;51.044;3.766;2023-03-20T01:59:52;102094.47;;;4.93;100.00
63281;BME280;49406;51.044;3.766;2023-03-20T02:02:31;102090.48;;;4.93;100.00
63281;BME280;49406;51.044;3.766;2023-03-20T02:05:09;102109.56;;;4.94;100.00
63281;BME280;49406;51.044;3.766;2023-03-20T02:07:48;102101.73;;;4.93;100.00
63281;BME280;49406;51.044;3.766;2023-03-20T02:10:24;102096.92;;;4.94;100.00
63281;BME280;49406;51.044;3.766;2023-03-20T02:13:00;102092.84;;;4.88;100.00
63281;BME280;49406;51.044;3.766;2023-03-20T02:15:50;102093.38;;;4.86;100.00
63281;BME280;49406;51.044;3.766;2023-03-20T02:18:26;102088.02;;;4.86;100.00
63281;BME280;49406;51.044;3.766;2023-03-20T02:24:36;102085.30;;;5.04;100.00
63281;BME280;49406;51.044;3.766;2023-03-20T02:27:22;102090.09;;;5.06;100.00
63281;BME280;49406;51.044;3.766;2023-03-20T02:30:34;102091.42;;;5.12;100.00
63281;BME280;49406;51.044;3.766;2023-03-20T02:36:46;102087.55;;;5.21;100.00
63281;BME280;49406;51.044;3.766;2023-03-20T02:42:28;102067.95;;;5.18;100.00
63281;BME280;49406;51.044;3.766;2023-03-20T02:45:15;102063.58;;;5.17;100.00
63281;BME280;49406;51.044;3.766;2023-03-20T02:47:59;102059.92;;;5.27;100.00
63281;BME280;49406;51.044;3.766;2023-03-20T02:50:39;102060.30;;;5.31;100.00
63281;BME280;49406;51.044;3.766;2023-03-20T02:53:32;102070.71;;;5.31;100.00
63281;BME280;49406;51.044;3.766;2023-03-20T02:56:14;102068.42;;;5.31;100.00
63281;BME280;49406;51.044;3.766;2023-03-20T02:58:59;102070.30;;;5.30;100.00
63281;BME280;49406;51.044;3.766;2023-03-20T03:01:39;102071.48;;;5.30;100.00
63281;BME280;49406;51.044;3.766;2023-03-20T03:04:17;102077.73;;;5.22;100.00
63281;BME280;49406;51.044;3.766;2023-03-20T03:06:53;102074.79;;;5.22;100.00
63281;BME280;49406;51.044;3.766;2023-03-20T03:09:34;102071.46;;;5.22;100.00
63281;BME280;49406;51.044;3.766;2023-03-20T03:12:13;102077.29;;;5.31;100.00
63281;BME280;49406;51.044;3.766;2023-03-20T03:14:52;102071.20;;;5.38;100.00
63281;BME280;49406;51.044;3.766;2023-03-20T03:17:31;102069.24;;;5.40;100.00
63281;BME280;49406;51.044;3.766;2023-03-20T03:20:13;102069.02;;;5.42;100.00
63281;BME280;49406;51.044;3.766;2023-03-20T03:22:53;102069.29;;;5.44;100.00
63281;BME280;49406;51.044;3.766;2023-03-20T03:25:29;102065.70;;;5.46;100.00
63281;BME280;49406;51.044;3.766;2023-03-20T03:28:10;102066.55;;;5.45;100.00
63281;BME280;49406;51.044;3.766;2023-03-20T03:30:50;102060.99;;;5.41;100.00
63281;BME280;49406;51.044;3.766;2023-03-20T03:33:28;102064.97;;;5.41;100.00
63281;BME280;49406;51.044;3.766;2023-03-20T03:36:09;102063.73;;;5.52;100.00
63281;BME280;49406;51.044;3.766;2023-03-20T03:38:50;102063.65;;;5.54;100.00
63281;BME280;49406;51.044;3.766;2023-03-20T03:41:31;102065.08;;;5.58;100.00
63281;BME280;49406;51.044;3.766;2023-03-20T03:44:12;102063.94;;;5.59;100.00
63281;BME280;49406;51.044;3.766;2023-03-20T03:46:52;102060.52;;;5.61;100.00
63281;BME280;49406;51.044;3.766;2023-03-20T03:49:32;102055.39;;;5.58;100.00
63281;BME280;49406;51.044;3.766;2023-03-20T03:52:12;102062.63;;;5.57;100.00
63281;BME280;49406;51.044;3.766;2023-03-20T03:54:51;102062.59;;;5.64;100.00
63281;BME280;49406;51.044;3.766;2023-03-20T03:57:33;102061.30;;;5.70;100.00
63281;BME280;49406;51.044;3.766;2023-03-20T04:00:12;102057.02;;;5.71;100.00
63281;BME280;49406;51.044;3.766;2023-03-20T04:02:52;102061.63;;;5.73;100.00
63281;BME280;49406;51.044;3.766;2023-03-20T04:05:29;102064.70;;;5.75;100.00
63281;BME280;49406;51.044;3.766;2023-03-20T04:08:07;102063.55;;;5.77;100.00
63281;BME280;49406;51.044;3.766;2023-03-20T04:10:42;102061.02;;;5.75;100.00
63281;BME280;49406;51.044;3.766;2023-03-20T04:13:17;102064.34;;;5.71;100.00
63281;BME280;49406;51.044;3.766;2023-03-20T04:15:51;102064.38;;;5.72;100.00
63281;BME280;49406;51.044;3.766;2023-03-20T04:18:26;102065.61;;;5.80;100.00
63281;BME280;49406;51.044;3.766;2023-03-20T04:21:01;102061.53;;;5.82;100.00
63281;BME280;49406;51.044;3.766;2023-03-20T04:23:36;102058.30;;;5.84;100.00
63281;BME280;49406;51.044;3.766;2023-03-20T04:26:11;102056.98;;;5.85;100.00
63281;BME280;49406;51.044;3.766;2023-03-20T04:28:46;102060.49;;;5.82;100.00
63281;BME280;49406;51.044;3.766;2023-03-20T04:31:20;102056.19;;;5.79;100.00
63281;BME280;49406;51.044;3.766;2023-03-20T04:33:55;102055.83;;;5.86;100.00
63281;BME280;49406;51.044;3.766;2023-03-20T04:36:30;102057.38;;;5.93;100.00
63281;BME280;49406;51.044;3.766;2023-03-20T04:39:04;102049.23;;;5.93;100.00
63281;BME280;49406;51.044;3.766;2023-03-20T04:41:39;102046.75;;;5.95;100.00
63281;BME280;49406;51.044;3.766;2023-03-20T04:44:14;102047.85;;;5.97;100.00
63281;BME280;49406;51.044;3.766;2023-03-20T04:46:49;102039.71;;;5.97;100.00
63281;BME280;49406;51.044;3.766;2023-03-20T04:49:24;102035.96;;;5.95;100.00
63281;BME280;49406;51.044;3.766;2023-03-20T04:51:59;102039.56;;;5.94;100.00
63281;BME280;49406;51.044;3.766;2023-03-20T04:54:33;102032.13;;;5.95;100.00
63281;BME280;49406;51.044;3.766;2023-03-20T04:57:08;102018.67;;;6.04;100.00
63281;BME280;49406;51.044;3.766;2023-03-20T04:59:43;102008.40;;;6.07;100.00
63281;BME280;49406;51.044;3.766;2023-03-20T05:02:18;102013.32;;;6.09;100.00
63281;BME280;49406;51.044;3.766;2023-03-20T05:04:53;102016.00;;;6.10;100.00
63281;BME280;49406;51.044;3.766;2023-03-20T05:07:28;102016.38;;;6.11;100.00
63281;BME280;49406;51.044;3.766;2023-03-20T05:10:03;102011.38;;;6.08;100.00
63281;BME280;49406;51.044;3.766;2023-03-20T05:12:38;102020.77;;;6.08;100.00
63281;BME280;49406;51.044;3.766;2023-03-20T05:15:13;102017.61;;;6.08;100.00
63281;BME280;49406;51.044;3.766;2023-03-20T05:17:48;102018.14;;;6.15;100.00
63281;BME280;49406;51.044;3.766;2023-03-20T05:20:23;102022.91;;;6.17;100.00
63281;BME280;49406;51.044;3.766;2023-03-20T05:22:57;102021.05;;;6.18;100.00
63281;BME280;49406;51.044;3.766;2023-03-20T05:25:32;102020.56;;;6.19;100.00
63281;BME280;49406;51.044;3.766;2023-03-20T05:28:07;102024.37;;;6.22;100.00
63281;BME280;49406;51.044;3.766;2023-03-20T05:30:42;102029.09;;;6.20;100.00
63281;BME280;49406;51.044;3.766;2023-03-20T05:33:16;102033.08;;;6.23;100.00
63281;BME280;49406;51.044;3.766;2023-03-20T05:35:51;102036.02;;;6.31;100.00
63281;BME280;49406;51.044;3.766;2023-03-20T05:38:26;102037.31;;;6.32;100.00
63281;BME280;49406;51.044;3.766;2023-03-20T05:41:01;102039.30;;;6.34;100.00
63281;BME280;49406;51.044;3.766;2023-03-20T05:43:36;102039.14;;;6.30;100.00
63281;BME280;49406;51.044;3.766;2023-03-20T05:46:11;102042.27;;;6.26;100.00
63281;BME280;49406;51.044;3.766;2023-03-20T05:48:46;102042.27;;;6.35;100.00
63281;BME280;49406;51.044;3.766;2023-03-20T05:51:20;102043.11;;;6.38;100.00
63281;BME280;49406;51.044;3.766;2023-03-20T05:53:55;102044.45;;;6.41;100.00
63281;BME280;49406;51.044;3.766;2023-03-20T05:56:30;102041.15;;;6.41;100.00
63281;BME280;49406;51.044;3.766;2023-03-20T05:59:04;102048.31;;;6.42;100.00
63281;BME280;49406;51.044;3.766;2023-03-20T06:01:39;102036.48;;;6.34;100.00
63281;BME280;49406;51.044;3.766;2023-03-20T06:04:14;102041.92;;;6.39;100.00
63281;BME280;49406;51.044;3.766;2023-03-20T06:06:49;102042.23;;;6.45;100.00
63281;BME280;49406;51.044;3.766;2023-03-20T06:09:23;102039.83;;;6.46;100.00
63281;BME280;49406;51.044;3.766;2023-03-20T06:11:58;102037.73;;;6.46;100.00
63281;BME280;49406;51.044;3.766;2023-03-20T06:14:33;102037.11;;;6.48;100.00
63281;BME280;49406;51.044;3.766;2023-03-20T06:17:08;102032.81;;;6.45;100.00
63281;BME280;49406;51.044;3.766;2023-03-20T06:19:43;102032.48;;;6.41;100.00
63281;BME280;49406;51.044;3.766;2023-03-20T06:22:17;102034.57;;;6.45;100.00
63281;BME280;49406;51.044;3.766;2023-03-20T06:24:52;102039.95;;;6.53;100.00
63281;BME280;49406;51.044;3.766;2023-03-20T06:27:27;102044.54;;;6.55;100.00
63281;BME280;49406;51.044;3.766;2023-03-20T06:30:04;102050.23;;;6.57;100.00
63281;BME280;49406;51.044;3.766;2023-03-20T06:32:39;102045.15;;;6.57;100.00
63281;BME280;49406;51.044;3.766;2023-03-20T06:35:14;102045.16;;;6.53;100.00
63281;BME280;49406;51.044;3.766;2023-03-20T06:37:50;102044.54;;;6.54;100.00
63281;BME280;49406;51.044;3.766;2023-03-20T06:40:25;102043.50;;;6.58;100.00
63281;BME280;49406;51.044;3.766;2023-03-20T06:43:00;102049.63;;;6.59;100.00
63281;BME280;49406;51.044;3.766;2023-03-20T06:45:35;102045.01;;;6.61;100.00
63281;BME280;49406;51.044;3.766;2023-03-20T06:48:09;102048.17;;;6.58;100.00
63281;BME280;49406;51.044;3.766;2023-03-20T06:50:46;102054.71;;;6.56;100.00
63281;BME280;49406;51.044;3.766;2023-03-20T06:53:21;102056.06;;;6.56;100.00
63281;BME280;49406;51.044;3.766;2023-03-20T06:55:56;102054.23;;;6.61;100.00
63281;BME280;49406;51.044;3.766;2023-03-20T06:58:30;102050.64;;;6.67;100.00
63281;BME280;49406;51.044;3.766;2023-03-20T07:01:11;102048.14;;;6.73;100.00
63281;BME280;49406;51.044;3.766;2023-03-20T07:03:46;102044.15;;;6.73;100.00
63281;BME280;49406;51.044;3.766;2023-03-20T07:06:21;102042.65;;;6.79;100.00
63281;BME280;49406;51.044;3.766;2023-03-20T07:08:56;102040.00;;;6.82;100.00
63281;BME280;49406;51.044;3.766;2023-03-20T07:11:31;102038.42;;;6.90;100.00
63281;BME280;49406;51.044;3.766;2023-03-20T07:14:06;102037.60;;;6.95;100.00
63281;BME280;49406;51.044;3.766;2023-03-20T07:16:41;102042.47;;;7.00;100.00
63281;BME280;49406;51.044;3.766;2023-03-20T07:19:16;102037.15;;;7.01;100.00
63281;BME280;49406;51.044;3.766;2023-03-20T07:21:52;102046.45;;;7.07;100.00
63281;BME280;49406;51.044;3.766;2023-03-20T07:24:30;102048.19;;;7.11;100.00
63281;BME280;49406;51.044;3.766;2023-03-20T07:27:06;102048.69;;;7.23;100.00
63281;BME280;49406;51.044;3.766;2023-03-20T07:29:40;102049.30;;;7.30;100.00
63281;BME280;49406;51.044;3.766;2023-03-20T07:32:15;102052.27;;;7.35;100.00
63281;BME280;49406;51.044;3.766;2023-03-20T07:34:50;102054.55;;;7.35;100.00
63281;BME280;49406;51.044;3.766;2023-03-20T07:37:25;102056.48;;;7.36;100.00
63281;BME280;49406;51.044;3.766;2023-03-20T07:39:59;102055.31;;;7.49;100.00
63281;BME280;49406;51.044;3.766;2023-03-20T07:42:34;102056.10;;;7.61;100.00
63281;BME280;49406;51.044;3.766;2023-03-20T07:45:09;102055.94;;;7.66;100.00
63281;BME280;49406;51.044;3.766;2023-03-20T07:47:44;102054.92;;;7.67;100.00
63281;BME280;49406;51.044;3.766;2023-03-20T07:50:20;102051.45;;;7.67;100.00
63281;BME280;49406;51.044;3.766;2023-03-20T07:52:55;102050.77;;;7.76;100.00
63281;BME280;49406;51.044;3.766;2023-03-20T07:55:30;102055.77;;;7.83;100.00
63281;BME280;49406;51.044;3.766;2023-03-20T07:58:05;102051.27;;;7.84;100.00
63281;BME280;49406;51.044;3.766;2023-03-20T08:00:40;102056.48;;;7.79;100.00
63281;BME280;49406;51.044;3.766;2023-03-20T08:03:15;102057.46;;;7.82;100.00
63281;BME280;49406;51.044;3.766;2023-03-20T08:05:50;102053.02;;;7.89;100.00
63281;BME280;49406;51.044;3.766;2023-03-20T08:08:25;102056.90;;;8.04;100.00
63281;BME280;49406;51.044;3.766;2023-03-20T08:10:59;102058.02;;;8.06;100.00
63281;BME280;49406;51.044;3.766;2023-03-20T08:13:34;102058.20;;;8.10;100.00
63281;BME280;49406;51.044;3.766;2023-03-20T08:16:10;102065.15;;;8.10;100.00
63281;BME280;49406;51.044;3.766;2023-03-20T08:18:44;102065.80;;;8.13;100.00
63281;BME280;49406;51.044;3.766;2023-03-20T08:21:19;102063.40;;;8.19;100.00
63281;BME280;49406;51.044;3.766;2023-03-20T08:23:54;102064.99;;;8.29;100.00
63281;BME280;49406;51.044;3.766;2023-03-20T08:26:29;102070.67;;;8.40;100.00
63281;BME280;49406;51.044;3.766;2023-03-20T08:29:04;102072.23;;;8.45;100.00
63281;BME280;49406;51.044;3.766;2023-03-20T08:31:40;102069.75;;;8.49;100.00
63281;BME280;49406;51.044;3.766;2023-03-20T08:34:14;102076.98;;;8.56;100.00
63281;BME280;49406;51.044;3.766;2023-03-20T08:36:49;102080.55;;;8.73;100.00
63281;BME280;49406;51.044;3.766;2023-03-20T08:39:25;102076.13;;;8.81;100.00
63281;BME280;49406;51.044;3.766;2023-03-20T08:41:59;102076.71;;;8.83;100.00
63281;BME280;49406;51.044;3.766;2023-03-20T08:44:34;102078.06;;;8.82;100.00
63281;BME280;49406;51.044;3.766;2023-03-20T08:47:09;102076.39;;;8.93;100.00
63281;BME280;49406;51.044;3.766;2023-03-20T08:49:44;102075.25;;;9.16;100.00
63281;BME280;49406;51.044;3.766;2023-03-20T08:52:19;102079.02;;;9.29;100.00
63281;BME280;49406;51.044;3.766;2023-03-20T08:54:53;102074.33;;;9.36;100.00
63281;BME280;49406;51.044;3.766;2023-03-20T08:57:28;102073.98;;;9.52;100.00
63281;BME280;49406;51.044;3.766;2023-03-20T09:00:03;102076.02;;;9.78;100.00
63281;BME280;49406;51.044;3.766;2023-03-20T09:02:39;102079.44;;;9.92;100.00
63281;BME280;49406;51.044;3.766;2023-03-20T09:05:14;102074.06;;;9.99;100.00
63281;BME280;49406;51.044;3.766;2023-03-20T09:07:49;102076.67;;;10.05;100.00
63281;BME280;49406;51.044;3.766;2023-03-20T09:10:24;102076.66;;;10.10;100.00
63281;BME280;49406;51.044;3.766;2023-03-20T09:12:58;102077.91;;;10.28;100.00
63281;BME280;49406;51.044;3.766;2023-03-20T09:15:33;102080.05;;;10.47;100.00
63281;BME280;49406;51.044;3.766;2023-03-20T09:18:08;102085.02;;;10.50;100.00
63281;BME280;49406;51.044;3.766;2023-03-20T09:20:43;102085.91;;;10.57;99.92
63281;BME280;49406;51.044;3.766;2023-03-20T09:23:18;102080.68;;;10.64;99.55
63281;BME280;49406;51.044;3.766;2023-03-20T09:25:53;102083.80;;;10.63;99.10
63281;BME280;49406;51.044;3.766;2023-03-20T09:28:27;102076.27;;;10.75;99.58
63281;BME280;49406;51.044;3.766;2023-03-20T09:31:02;102071.81;;;10.78;97.69
63281;BME280;49406;51.044;3.766;2023-03-20T09:33:37;102072.41;;;10.75;98.24
63281;BME280;49406;51.044;3.766;2023-03-20T09:36:12;102073.30;;;10.76;98.26
63281;BME280;49406;51.044;3.766;2023-03-20T09:38:48;102071.67;;;10.79;96.59
63281;BME280;49406;51.044;3.766;2023-03-20T09:41:24;102072.95;;;10.82;97.14
63281;BME280;49406;51.044;3.766;2023-03-20T09:44:13;102074.46;;;10.99;96.35
63281;BME280;49406;51.044;3.766;2023-03-20T09:47:02;102073.21;;;10.98;94.49
63281;BME280;49406;51.044;3.766;2023-03-20T09:49:47;102075.71;;;10.88;95.10
63281;BME280;49406;51.044;3.766;2023-03-20T09:52:27;102075.64;;;10.78;94.70
63281;BME280;49406;51.044;3.766;2023-03-20T09:55:10;102077.08;;;10.66;95.11
63281;BME280;49406;51.044;3.766;2023-03-20T09:57:48;102087.50;;;10.64;95.58
63281;BME280;49406;51.044;3.766;2023-03-20T10:00:27;102088.92;;;10.65;95.31
63281;BME280;49406;51.044;3.766;2023-03-20T10:03:04;102087.41;;;10.61;96.34
63281;BME280;49406;51.044;3.766;2023-03-20T10:05:43;102088.84;;;10.56;97.06
63281;BME280;49406;51.044;3.766;2023-03-20T10:08:23;102087.83;;;10.57;99.09
63281;BME280;49406;51.044;3.766;2023-03-20T10:11:12;102081.95;;;10.65;99.35
63281;BME280;49406;51.044;3.766;2023-03-20T10:14:06;102079.31;;;10.72;98.25
63281;BME280;49406;51.044;3.766;2023-03-20T10:16:56;102086.08;;;10.76;98.18
63281;BME280;49406;51.044;3.766;2023-03-20T10:19:39;102081.69;;;10.95;98.91
63281;BME280;49406;51.044;3.766;2023-03-20T10:22:22;102082.11;;;11.10;95.67
63281;BME280;49406;51.044;3.766;2023-03-20T10:25:04;102081.73;;;11.16;95.63
63281;BME280;49406;51.044;3.766;2023-03-20T10:27:45;102074.31;;;11.28;93.37
63281;BME280;49406;51.044;3.766;2023-03-20T10:30:30;102068.04;;;11.57;91.04
63281;BME280;49406;51.044;3.766;2023-03-20T10:33:20;102068.64;;;11.83;91.17
63281;BME280;49406;51.044;3.766;2023-03-20T10:36:06;102062.96;;;12.03;90.10
63281;BME280;49406;51.044;3.766;2023-03-20T10:38:50;102057.17;;;12.19;89.06
63281;BME280;49406;51.044;3.766;2023-03-20T10:41:31;102058.02;;;12.35;88.32
63281;BME280;49406;51.044;3.766;2023-03-20T10:44:13;102048.64;;;12.57;87.70
63281;BME280;49406;51.044;3.766;2023-03-20T10:46:52;102049.31;;;12.64;85.98
63281;BME280;49406;51.044;3.766;2023-03-20T10:49:33;102050.03;;;12.65;85.91
63281;BME280;49406;51.044;3.766;2023-03-20T10:52:14;102051.26;;;12.57;85.23
63281;BME280;49406;51.044;3.766;2023-03-20T10:54:53;102048.61;;;12.74;86.21
63281;BME280;49406;51.044;3.766;2023-03-20T10:57:32;102047.52;;;13.01;85.63
63281;BME280;49406;51.044;3.766;2023-03-20T11:00:13;102044.50;;;13.39;84.42
63281;BME280;49406;51.044;3.766;2023-03-20T11:02:52;102049.27;;;13.52;81.08
63281;BME280;49406;51.044;3.766;2023-03-20T11:05:30;102042.75;;;13.41;81.00
63281;BME280;49406;51.044;3.766;2023-03-20T11:08:07;102036.21;;;13.49;81.03
63281;BME280;49406;51.044;3.766;2023-03-20T11:10:43;102030.40;;;13.73;80.72
63281;BME280;49406;51.044;3.766;2023-03-20T11:13:29;102024.05;;;13.83;79.96
63281;BME280;49406;51.044;3.766;2023-03-20T11:16:17;102023.46;;;13.66;79.55
63281;BME280;49406;51.044;3.766;2023-03-20T11:18:53;102016.38;;;13.49;80.88
63281;BME280;49406;51.044;3.766;2023-03-20T11:21:28;102019.05;;;13.40;81.11
63281;BME280;49406;51.044;3.766;2023-03-20T11:24:05;102019.36;;;13.27;81.27
63281;BME280;49406;51.044;3.766;2023-03-20T11:26:53;102018.52;;;13.10;82.03
63281;BME280;49406;51.044;3.766;2023-03-20T11:29:38;102017.55;;;12.93;83.25
63281;BME280;49406;51.044;3.766;2023-03-20T11:32:21;102019.22;;;12.99;83.94
63281;BME280;49406;51.044;3.766;2023-03-20T11:35:18;102021.16;;;13.20;84.22
63281;BME280;49406;51.044;3.766;2023-03-20T11:38:06;102016.74;;;13.51;82.54
63281;BME280;49406;51.044;3.766;2023-03-20T11:40:42;102011.30;;;13.76;82.31
63281;BME280;49406;51.044;3.766;2023-03-20T11:43:20;102006.28;;;13.82;80.57
63281;BME280;49406;51.044;3.766;2023-03-20T11:45:57;102002.96;;;13.71;80.33
63281;BME280;49406;51.044;3.766;2023-03-20T11:48:39;102002.60;;;13.83;81.21
63281;BME280;49406;51.044;3.766;2023-03-20T11:51:17;102004.96;;;14.02;80.49
63281;BME280;49406;51.044;3.766;2023-03-20T11:54:02;102001.48;;;14.04;79.81
63281;BME280;49406;51.044;3.766;2023-03-20T11:56:35;101996.59;;;14.08;80.16
63281;BME280;49406;51.044;3.766;2023-03-20T11:59:13;102003.56;;;14.16;79.36
63281;BME280;49406;51.044;3.766;2023-03-20T12:01:52;102003.89;;;14.14;79.17
63281;BME280;49406;51.044;3.766;2023-03-20T12:04:31;102009.02;;;14.02;78.89
63281;BME280;49406;51.044;3.766;2023-03-20T12:07:14;102008.26;;;13.84;80.09
63281;BME280;49406;51.044;3.766;2023-03-20T12:09:52;102009.48;;;13.71;81.26
63281;BME280;49406;51.044;3.766;2023-03-20T12:12:35;102009.59;;;13.55;81.23
63281;BME280;49406;51.044;3.766;2023-03-20T12:15:20;102008.02;;;13.44;82.40
63281;BME280;49406;51.044;3.766;2023-03-20T12:17:59;102009.21;;;13.29;83.01
63281;BME280;49406;51.044;3.766;2023-03-20T12:20:37;102004.70;;;13.21;83.74
63281;BME280;49406;51.044;3.766;2023-03-20T12:23:20;101999.48;;;13.25;84.93
63281;BME280;49406;51.044;3.766;2023-03-20T12:26:02;102001.94;;;13.36;84.46
63281;BME280;49406;51.044;3.766;2023-03-20T12:28:43;101995.84;;;13.50;84.09
63281;BME280;49406;51.044;3.766;2023-03-20T12:31:28;101989.15;;;13.62;83.49
63281;BME280;49406;51.044;3.766;2023-03-20T12:34:08;101983.60;;;13.68;82.75
63281;BME280;49406;51.044;3.766;2023-03-20T12:36:46;101983.35;;;13.75;82.84
63281;BME280;49406;51.044;3.766;2023-03-20T12:39:23;101982.64;;;13.90;82.35
63281;BME280;49406;51.044;3.766;2023-03-20T12:42:10;101973.82;;;14.00;82.31
63281;BME280;49406;51.044;3.766;2023-03-20T12:44:51;101969.66;;;14.06;82.04
63281;BME280;49406;51.044;3.766;2023-03-20T12:47:45;101968.21;;;14.01;82.11
63281;BME280;49406;51.044;3.766;2023-03-20T12:50:29;101961.99;;;13.96;82.00
63281;BME280;49406;51.044;3.766;2023-03-20T12:53:13;101956.41;;;13.85;82.73
63281;BME280;49406;51.044;3.766;2023-03-20T12:55:59;101954.48;;;13.86;83.44
63281;BME280;49406;51.044;3.766;2023-03-20T12:58:44;101954.57;;;13.94;82.98
63281;BME280;49406;51.044;3.766;2023-03-20T13:01:24;101959.85;;;13.93;82.44
63281;BME280;49406;51.044;3.766;2023-03-20T13:04:23;101956.10;;;13.89;82.76
63281;BME280;49406;51.044;3.766;2023-03-20T13:07:09;101961.16;;;13.85;83.22
63281;BME280;49406;51.044;3.766;2023-03-20T13:10:07;101960.06;;;13.82;83.08
63281;BME280;49406;51.044;3.766;2023-03-20T13:12:53;101968.94;;;13.76;83.96
63281;BME280;49406;51.044;3.766;2023-03-20T13:15:50;101969.54;;;13.54;84.19
63281;BME280;49406;51.044;3.766;2023-03-20T13:18:29;101969.13;;;13.27;85.72
63281;BME280;49406;51.044;3.766;2023-03-20T13:21:11;101966.98;;;13.14;86.85
63281;BME280;49406;51.044;3.766;2023-03-20T13:23:53;101964.58;;;13.08;87.56
63281;BME280;49406;51.044;3.766;2023-03-20T13:26:35;101959.23;;;13.02;88.08
63281;BME280;49406;51.044;3.766;2023-03-20T13:29:15;101956.64;;;12.93;88.62
63281;BME280;49406;51.044;3.766;2023-03-20T13:32:02;101959.79;;;12.93;89.51
63281;BME280;49406;51.044;3.766;2023-03-20T13:35:04;101962.82;;;12.95;89.97
63281;BME280;49406;51.044;3.766;2023-03-20T13:37:46;101959.48;;;13.16;89.50
63281;BME280;49406;51.044;3.766;2023-03-20T13:40:25;101952.57;;;13.13;89.12
63281;BME280;49406;51.044;3.766;2023-03-20T13:43:07;101949.05;;;13.12;89.72
63281;BME280;49406;51.044;3.766;2023-03-20T13:45:48;101947.63;;;13.12;89.53
63281;BME280;49406;51.044;3.766;2023-03-20T13:48:30;101947.56;;;13.09;89.80
63281;BME280;49406;51.044;3.766;2023-03-20T13:51:12;101948.61;;;13.09;90.35
63281;BME280;49406;51.044;3.766;2023-03-20T13:53:56;101948.15;;;13.13;89.71
63281;BME280;49406;51.044;3.766;2023-03-20T13:56:43;101945.63;;;13.18;89.63
63281;BME280;49406;51.044;3.766;2023-03-20T13:59:44;101943.48;;;13.16;90.67